sensor_id;sensor_type;location;lat;lon;timestamp;P1;durP1;ratioP1;P2;durP2;ratioP2
84666;SDS011;74896;42.518;23.712;2024-01-06T00:00:50;17.98;;;9.05;;
84666;SDS011;74896;42.518;23.712;2024-01-06T00:03:15;12.07;;;6.85;;
84666;SDS011;74896;42.518;23.712;2024-01-06T00:05:41;29.92;;;17.75;;
84666;SDS011;74896;42.518;23.712;2024-01-06T00:08:06;21.42;;;13.52;;
84666;SDS011;74896;42.518;23.712;2024-01-06T00:10:32;11.90;;;7.55;;
84666;SDS011;74896;42.518;23.712;2024-01-06T00:12:57;11.82;;;7.70;;
84666;SDS011;74896;42.518;23.712;2024-01-06T00:15:23;17.92;;;10.52;;
84666;SDS011;74896;42.518;23.712;2024-01-06T00:17:48;23.77;;;11.00;;
84666;SDS011;74896;42.518;23.712;2024-01-06T00:20:13;13.27;;;5.05;;
84666;SDS011;74896;42.518;23.712;2024-01-06T00:22:39;7.82;;;4.75;;
84666;SDS011;74896;42.518;23.712;2024-01-06T00:25:06;18.77;;;9.50;;
84666;SDS011;74896;42.518;23.712;2024-01-06T00:27:32;11.63;;;6.40;;
84666;SDS011;74896;42.518;23.712;2024-01-06T00:29:57;8.45;;;5.68;;
84666;SDS011;74896;42.518;23.712;2024-01-06T00:32:22;6.07;;;3.35;;
84666;SDS011;74896;42.518;23.712;2024-01-06T00:34:48;4.18;;;2.60;;
84666;SDS011;74896;42.518;23.712;2024-01-06T00:37:13;5.40;;;2.83;;
84666;SDS011;74896;42.518;23.712;2024-01-06T00:39:39;15.07;;;7.40;;
84666;SDS011;74896;42.518;23.712;2024-01-06T00:42:04;17.50;;;9.48;;
84666;SDS011;74896;42.518;23.712;2024-01-06T00:44:29;13.80;;;7.68;;
84666;SDS011;74896;42.518;23.712;2024-01-06T00:46:55;20.48;;;9.85;;
84666;SDS011;74896;42.518;23.712;2024-01-06T00:49:20;14.82;;;8.63;;
84666;SDS011;74896;42.518;23.712;2024-01-06T00:51:45;13.23;;;7.47;;
84666;SDS011;74896;42.518;23.712;2024-01-06T00:54:11;15.90;;;9.10;;
84666;SDS011;74896;42.518;23.712;2024-01-06T00:56:37;11.27;;;5.82;;
84666;SDS011;74896;42.518;23.712;2024-01-06T00:59:02;22.98;;;10.60;;
84666;SDS011;74896;42.518;23.712;2024-01-06T01:01:27;18.42;;;8.82;;
84666;SDS011;74896;42.518;23.712;2024-01-06T01:03:53;10.77;;;5.45;;
84666;SDS011;74896;42.518;23.712;2024-01-06T01:06:18;33.63;;;14.25;;
84666;SDS011;74896;42.518;23.712;2024-01-06T01:08:44;74.15;;;25.42;;
84666;SDS011;74896;42.518;23.712;2024-01-06T01:11:09;39.55;;;15.10;;
84666;SDS011;74896;42.518;23.712;2024-01-06T01:13:35;24.08;;;10.02;;
84666;SDS011;74896;42.518;23.712;2024-01-06T01:16:00;7.68;;;3.30;;
84666;SDS011;74896;42.518;23.712;2024-01-06T01:18:25;5.63;;;2.85;;
84666;SDS011;74896;42.518;23.712;2024-01-06T01:20:51;10.80;;;5.30;;
84666;SDS011;74896;42.518;23.712;2024-01-06T01:23:17;9.02;;;4.65;;
84666;SDS011;74896;42.518;23.712;2024-01-06T01:25:42;6.35;;;3.20;;
84666;SDS011;74896;42.518;23.712;2024-01-06T01:28:07;6.55;;;2.60;;
84666;SDS011;74896;42.518;23.712;2024-01-06T01:30:33;3.85;;;2.47;;
84666;SDS011;74896;42.518;23.712;2024-01-06T01:32:58;3.42;;;2.05;;
84666;SDS011;74896;42.518;23.712;2024-01-06T01:35:23;4.82;;;2.05;;
84666;SDS011;74896;42.518;23.712;2024-01-06T01:37:49;10.18;;;4.55;;
84666;SDS011;74896;42.518;23.712;2024-01-06T01:40:14;63.60;;;23.52;;
84666;SDS011;74896;42.518;23.712;2024-01-06T01:42:41;70.63;;;26.30;;
84666;SDS011;74896;42.518;23.712;2024-01-06T01:45:07;37.05;;;14.75;;
84666;SDS011;74896;42.518;23.712;2024-01-06T01:47:33;25.15;;;11.30;;
84666;SDS011;74896;42.518;23.712;2024-01-06T01:49:58;24.20;;;10.45;;
84666;SDS011;74896;42.518;23.712;2024-01-06T01:52:24;37.20;;;19.50;;
84666;SDS011;74896;42.518;23.712;2024-01-06T01:54:50;22.55;;;11.57;;
84666;SDS011;74896;42.518;23.712;2024-01-06T01:57:17;9.07;;;5.60;;
84666;SDS011;74896;42.518;23.712;2024-01-06T01:59:43;21.80;;;10.93;;
84666;SDS011;74896;42.518;23.712;2024-01-06T02:02:09;29.38;;;14.40;;
84666;SDS011;74896;42.518;23.712;2024-01-06T02:04:34;19.42;;;11.07;;
84666;SDS011;74896;42.518;23.712;2024-01-06T02:07:00;12.85;;;6.70;;
84666;SDS011;74896;42.518;23.712;2024-01-06T02:09:25;18.80;;;9.05;;
84666;SDS011;74896;42.518;23.712;2024-01-06T02:11:54;8.10;;;4.68;;
84666;SDS011;74896;42.518;23.712;2024-01-06T02:14:22;15.13;;;8.05;;
84666;SDS011;74896;42.518;23.712;2024-01-06T02:16:47;22.63;;;12.25;;
84666;SDS011;74896;42.518;23.712;2024-01-06T02:19:12;33.10;;;16.75;;
84666;SDS011;74896;42.518;23.712;2024-01-06T02:21:42;11.55;;;6.93;;
84666;SDS011;74896;42.518;23.712;2024-01-06T02:24:08;20.90;;;13.05;;
84666;SDS011;74896;42.518;23.712;2024-01-06T02:26:34;16.02;;;9.52;;
84666;SDS011;74896;42.518;23.712;2024-01-06T02:28:59;18.00;;;11.00;;
84666;SDS011;74896;42.518;23.712;2024-01-06T02:31:26;13.38;;;8.25;;
84666;SDS011;74896;42.518;23.712;2024-01-06T02:33:52;13.00;;;5.60;;
84666;SDS011;74896;42.518;23.712;2024-01-06T02:36:17;7.53;;;4.85;;
84666;SDS011;74896;42.518;23.712;2024-01-06T02:38:43;13.32;;;5.65;;
84666;SDS011;74896;42.518;23.712;2024-01-06T02:41:08;10.02;;;5.28;;
84666;SDS011;74896;42.518;23.712;2024-01-06T02:43:33;8.93;;;3.95;;
84666;SDS011;74896;42.518;23.712;2024-01-06T02:45:59;4.45;;;2.83;;
84666;SDS011;74896;42.518;23.712;2024-01-06T02:48:24;5.68;;;2.60;;
84666;SDS011;74896;42.518;23.712;2024-01-06T02:50:50;4.43;;;3.20;;
84666;SDS011;74896;42.518;23.712;2024-01-06T02:53:15;7.32;;;4.65;;
84666;SDS011;74896;42.518;23.712;2024-01-06T02:55:41;8.05;;;3.90;;
84666;SDS011;74896;42.518;23.712;2024-01-06T02:58:06;12.13;;;5.07;;
84666;SDS011;74896;42.518;23.712;2024-01-06T03:00:32;15.23;;;7.95;;
84666;SDS011;74896;42.518;23.712;2024-01-06T03:02:57;7.47;;;4.20;;
84666;SDS011;74896;42.518;23.712;2024-01-06T03:05:22;6.55;;;4.03;;
84666;SDS011;74896;42.518;23.712;2024-01-06T03:07:48;5.63;;;3.65;;
84666;SDS011;74896;42.518;23.712;2024-01-06T03:10:13;6.85;;;3.72;;
84666;SDS011;74896;42.518;23.712;2024-01-06T03:12:39;5.97;;;4.05;;
84666;SDS011;74896;42.518;23.712;2024-01-06T03:15:04;5.53;;;3.50;;
84666;SDS011;74896;42.518;23.712;2024-01-06T03:17:30;5.43;;;3.03;;
84666;SDS011;74896;42.518;23.712;2024-01-06T03:19:56;4.43;;;3.30;;
84666;SDS011;74896;42.518;23.712;2024-01-06T03:22:22;7.70;;;3.30;;
84666;SDS011;74896;42.518;23.712;2024-01-06T03:24:47;3.97;;;2.67;;
84666;SDS011;74896;42.518;23.712;2024-01-06T03:27:13;4.88;;;3.08;;
84666;SDS011;74896;42.518;23.712;2024-01-06T03:29:39;5.30;;;3.10;;
84666;SDS011;74896;42.518;23.712;2024-01-06T03:32:04;6.88;;;3.05;;
84666;SDS011;74896;42.518;23.712;2024-01-06T03:34:30;5.85;;;3.05;;
84666;SDS011;74896;42.518;23.712;2024-01-06T03:36:56;6.70;;;3.20;;
84666;SDS011;74896;42.518;23.712;2024-01-06T03:39:21;6.50;;;2.88;;
84666;SDS011;74896;42.518;23.712;2024-01-06T03:41:47;4.10;;;2.80;;
84666;SDS011;74896;42.518;23.712;2024-01-06T03:44:13;6.00;;;2.92;;
84666;SDS011;74896;42.518;23.712;2024-01-06T03:46:39;5.10;;;2.95;;
84666;SDS011;74896;42.518;23.712;2024-01-06T03:49:04;5.75;;;3.53;;
84666;SDS011;74896;42.518;23.712;2024-01-06T03:51:30;8.15;;;3.58;;
84666;SDS011;74896;42.518;23.712;2024-01-06T03:53:55;5.57;;;3.85;;
84666;SDS011;74896;42.518;23.712;2024-01-06T03:56:20;7.05;;;4.57;;
84666;SDS011;74896;42.518;23.712;2024-01-06T03:58:46;7.30;;;4.75;;
84666;SDS011;74896;42.518;23.712;2024-01-06T04:01:11;9.55;;;4.80;;
84666;SDS011;74896;42.518;23.712;2024-01-06T04:03:38;24.45;;;11.65;;
84666;SDS011;74896;42.518;23.712;2024-01-06T04:06:05;72.35;;;30.70;;
84666;SDS011;74896;42.518;23.712;2024-01-06T04:08:31;15.13;;;9.05;;
84666;SDS011;74896;42.518;23.712;2024-01-06T04:10:56;10.48;;;6.25;;
84666;SDS011;74896;42.518;23.712;2024-01-06T04:13:22;9.90;;;6.65;;
84666;SDS011;74896;42.518;23.712;2024-01-06T04:15:49;10.73;;;6.88;;
84666;SDS011;74896;42.518;23.712;2024-01-06T04:18:15;12.57;;;7.60;;
84666;SDS011;74896;42.518;23.712;2024-01-06T04:20:40;11.52;;;6.68;;
84666;SDS011;74896;42.518;23.712;2024-01-06T04:23:06;13.63;;;6.55;;
84666;SDS011;74896;42.518;23.712;2024-01-06T04:25:31;8.63;;;5.78;;
84666;SDS011;74896;42.518;23.712;2024-01-06T04:27:56;10.25;;;6.93;;
84666;SDS011;74896;42.518;23.712;2024-01-06T04:30:22;11.55;;;6.15;;
84666;SDS011;74896;42.518;23.712;2024-01-06T04:32:47;9.48;;;5.57;;
84666;SDS011;74896;42.518;23.712;2024-01-06T04:35:16;7.10;;;4.97;;
84666;SDS011;74896;42.518;23.712;2024-01-06T04:37:41;8.35;;;4.90;;
84666;SDS011;74896;42.518;23.712;2024-01-06T04:40:07;8.68;;;4.72;;
84666;SDS011;74896;42.518;23.712;2024-01-06T04:42:33;8.00;;;4.28;;
84666;SDS011;74896;42.518;23.712;2024-01-06T04:44:58;7.82;;;4.50;;
84666;SDS011;74896;42.518;23.712;2024-01-06T04:47:24;13.50;;;6.90;;
84666;SDS011;74896;42.518;23.712;2024-01-06T04:49:49;36.20;;;14.77;;
84666;SDS011;74896;42.518;23.712;2024-01-06T04:52:15;21.58;;;9.35;;
84666;SDS011;74896;42.518;23.712;2024-01-06T04:54:40;27.58;;;11.35;;
84666;SDS011;74896;42.518;23.712;2024-01-06T04:57:05;16.80;;;7.20;;
84666;SDS011;74896;42.518;23.712;2024-01-06T04:59:31;15.48;;;7.75;;
84666;SDS011;74896;42.518;23.712;2024-01-06T05:01:57;10.80;;;4.32;;
84666;SDS011;74896;42.518;23.712;2024-01-06T05:04:23;9.05;;;3.20;;
84666;SDS011;74896;42.518;23.712;2024-01-06T05:06:49;17.70;;;7.25;;
84666;SDS011;74896;42.518;23.712;2024-01-06T05:09:16;19.70;;;7.03;;
84666;SDS011;74896;42.518;23.712;2024-01-06T05:11:43;31.10;;;12.60;;
84666;SDS011;74896;42.518;23.712;2024-01-06T05:14:08;37.47;;;14.30;;
84666;SDS011;74896;42.518;23.712;2024-01-06T05:16:34;25.65;;;10.18;;
84666;SDS011;74896;42.518;23.712;2024-01-06T05:18:59;88.75;;;27.35;;
84666;SDS011;74896;42.518;23.712;2024-01-06T05:21:25;118.18;;;34.13;;
84666;SDS011;74896;42.518;23.712;2024-01-06T05:23:50;119.30;;;37.17;;
84666;SDS011;74896;42.518;23.712;2024-01-06T05:26:16;92.07;;;30.83;;
84666;SDS011;74896;42.518;23.712;2024-01-06T05:28:41;45.97;;;15.38;;
84666;SDS011;74896;42.518;23.712;2024-01-06T05:31:07;61.80;;;20.63;;
84666;SDS011;74896;42.518;23.712;2024-01-06T05:33:32;29.45;;;11.18;;
84666;SDS011;74896;42.518;23.712;2024-01-06T05:35:57;18.30;;;7.38;;
84666;SDS011;74896;42.518;23.712;2024-01-06T05:38:23;10.55;;;4.40;;
84666;SDS011;74896;42.518;23.712;2024-01-06T05:40:48;20.27;;;9.20;;
84666;SDS011;74896;42.518;23.712;2024-01-06T05:43:13;25.90;;;11.13;;
84666;SDS011;74896;42.518;23.712;2024-01-06T05:45:39;12.73;;;6.30;;
84666;SDS011;74896;42.518;23.712;2024-01-06T05:48:10;66.85;;;30.55;;
84666;SDS011;74896;42.518;23.712;2024-01-06T05:50:37;53.90;;;23.42;;
84666;SDS011;74896;42.518;23.712;2024-01-06T05:53:04;30.45;;;11.82;;
84666;SDS011;74896;42.518;23.712;2024-01-06T05:55:29;10.93;;;4.18;;
84666;SDS011;74896;42.518;23.712;2024-01-06T05:57:54;6.80;;;5.05;;
84666;SDS011;74896;42.518;23.712;2024-01-06T06:00:20;7.40;;;4.50;;
84666;SDS011;74896;42.518;23.712;2024-01-06T06:02:45;10.57;;;5.35;;
84666;SDS011;74896;42.518;23.712;2024-01-06T06:05:11;9.13;;;6.03;;
84666;SDS011;74896;42.518;23.712;2024-01-06T06:07:36;7.68;;;4.70;;
84666;SDS011;74896;42.518;23.712;2024-01-06T06:10:07;10.13;;;5.20;;
84666;SDS011;74896;42.518;23.712;2024-01-06T06:12:35;13.65;;;6.75;;
84666;SDS011;74896;42.518;23.712;2024-01-06T06:15:01;17.02;;;7.68;;
84666;SDS011;74896;42.518;23.712;2024-01-06T06:17:29;17.88;;;8.02;;
84666;SDS011;74896;42.518;23.712;2024-01-06T06:19:55;13.63;;;7.95;;
84666;SDS011;74896;42.518;23.712;2024-01-06T06:22:22;15.88;;;6.72;;
84666;SDS011;74896;42.518;23.712;2024-01-06T06:24:47;14.43;;;6.72;;
84666;SDS011;74896;42.518;23.712;2024-01-06T06:27:12;18.80;;;8.20;;
84666;SDS011;74896;42.518;23.712;2024-01-06T06:29:38;14.63;;;6.35;;
84666;SDS011;74896;42.518;23.712;2024-01-06T06:32:03;7.22;;;3.97;;
84666;SDS011;74896;42.518;23.712;2024-01-06T06:34:29;8.50;;;4.15;;
84666;SDS011;74896;42.518;23.712;2024-01-06T06:36:54;7.18;;;3.67;;
84666;SDS011;74896;42.518;23.712;2024-01-06T06:39:19;10.05;;;5.50;;
84666;SDS011;74896;42.518;23.712;2024-01-06T06:41:45;10.48;;;5.47;;
84666;SDS011;74896;42.518;23.712;2024-01-06T06:44:10;6.50;;;4.30;;
84666;SDS011;74896;42.518;23.712;2024-01-06T06:46:36;11.68;;;7.20;;
84666;SDS011;74896;42.518;23.712;2024-01-06T06:49:01;12.98;;;7.38;;
84666;SDS011;74896;42.518;23.712;2024-01-06T06:51:27;26.95;;;13.65;;
84666;SDS011;74896;42.518;23.712;2024-01-06T06:53:53;22.70;;;10.95;;
84666;SDS011;74896;42.518;23.712;2024-01-06T06:56:19;22.17;;;10.65;;
84666;SDS011;74896;42.518;23.712;2024-01-06T06:58:44;21.73;;;10.07;;
84666;SDS011;74896;42.518;23.712;2024-01-06T07:01:10;26.30;;;9.82;;
84666;SDS011;74896;42.518;23.712;2024-01-06T07:03:35;19.27;;;9.05;;
84666;SDS011;74896;42.518;23.712;2024-01-06T07:06:01;8.48;;;4.78;;
84666;SDS011;74896;42.518;23.712;2024-01-06T07:08:26;26.05;;;15.45;;
84666;SDS011;74896;42.518;23.712;2024-01-06T07:10:52;9.23;;;5.07;;
84666;SDS011;74896;42.518;23.712;2024-01-06T07:13:17;13.88;;;8.63;;
84666;SDS011;74896;42.518;23.712;2024-01-06T07:15:43;10.20;;;7.05;;
84666;SDS011;74896;42.518;23.712;2024-01-06T07:18:10;10.35;;;5.13;;
84666;SDS011;74896;42.518;23.712;2024-01-06T07:20:35;7.93;;;4.45;;
84666;SDS011;74896;42.518;23.712;2024-01-06T07:23:00;8.65;;;4.47;;
84666;SDS011;74896;42.518;23.712;2024-01-06T07:25:28;8.60;;;4.03;;
84666;SDS011;74896;42.518;23.712;2024-01-06T07:27:53;6.93;;;4.35;;
84666;SDS011;74896;42.518;23.712;2024-01-06T07:30:18;9.55;;;4.03;;
84666;SDS011;74896;42.518;23.712;2024-01-06T07:32:44;7.75;;;4.18;;
84666;SDS011;74896;42.518;23.712;2024-01-06T07:35:09;12.15;;;4.38;;
84666;SDS011;74896;42.518;23.712;2024-01-06T07:37:34;21.35;;;8.90;;
84666;SDS011;74896;42.518;23.712;2024-01-06T07:40:00;14.05;;;6.25;;
84666;SDS011;74896;42.518;23.712;2024-01-06T07:42:25;18.63;;;7.32;;
84666;SDS011;74896;42.518;23.712;2024-01-06T07:44:51;17.73;;;5.32;;
84666;SDS011;74896;42.518;23.712;2024-01-06T07:47:16;13.27;;;5.40;;
84666;SDS011;74896;42.518;23.712;2024-01-06T07:49:41;21.45;;;7.93;;
84666;SDS011;74896;42.518;23.712;2024-01-06T07:52:07;16.65;;;7.03;;
84666;SDS011;74896;42.518;23.712;2024-01-06T07:54:32;28.50;;;10.30;;
84666;SDS011;74896;42.518;23.712;2024-01-06T07:56:57;19.35;;;6.72;;
84666;SDS011;74896;42.518;23.712;2024-01-06T07:59:24;18.77;;;5.28;;
84666;SDS011;74896;42.518;23.712;2024-01-06T08:01:49;29.23;;;7.63;;
84666;SDS011;74896;42.518;23.712;2024-01-06T08:04:15;33.85;;;9.52;;
84666;SDS011;74896;42.518;23.712;2024-01-06T08:06:40;22.80;;;7.80;;
84666;SDS011;74896;42.518;23.712;2024-01-06T08:09:05;94.38;;;26.65;;
84666;SDS011;74896;42.518;23.712;2024-01-06T08:11:31;56.97;;;15.98;;
84666;SDS011;74896;42.518;23.712;2024-01-06T08:13:56;51.97;;;14.38;;
84666;SDS011;74896;42.518;23.712;2024-01-06T08:16:22;73.70;;;22.30;;
84666;SDS011;74896;42.518;23.712;2024-01-06T08:18:48;89.85;;;29.50;;
84666;SDS011;74896;42.518;23.712;2024-01-06T08:21:14;120.43;;;40.60;;
84666;SDS011;74896;42.518;23.712;2024-01-06T08:23:39;100.40;;;35.28;;
84666;SDS011;74896;42.518;23.712;2024-01-06T08:26:08;66.53;;;25.88;;
84666;SDS011;74896;42.518;23.712;2024-01-06T08:28:33;39.83;;;14.93;;
84666;SDS011;74896;42.518;23.712;2024-01-06T08:30:59;46.97;;;20.23;;
84666;SDS011;74896;42.518;23.712;2024-01-06T08:33:24;21.90;;;10.15;;
84666;SDS011;74896;42.518;23.712;2024-01-06T08:35:49;14.35;;;7.55;;
84666;SDS011;74896;42.518;23.712;2024-01-06T08:38:15;14.13;;;7.57;;
84666;SDS011;74896;42.518;23.712;2024-01-06T08:40:41;18.20;;;9.63;;
84666;SDS011;74896;42.518;23.712;2024-01-06T08:43:06;19.88;;;9.05;;
84666;SDS011;74896;42.518;23.712;2024-01-06T08:45:32;13.70;;;7.07;;
84666;SDS011;74896;42.518;23.712;2024-01-06T08:47:57;14.70;;;7.78;;
84666;SDS011;74896;42.518;23.712;2024-01-06T08:50:23;21.40;;;8.85;;
84666;SDS011;74896;42.518;23.712;2024-01-06T08:52:48;21.30;;;7.75;;
84666;SDS011;74896;42.518;23.712;2024-01-06T08:55:13;7.63;;;3.67;;
84666;SDS011;74896;42.518;23.712;2024-01-06T08:57:39;7.75;;;5.18;;
84666;SDS011;74896;42.518;23.712;2024-01-06T09:00:04;11.63;;;5.43;;
84666;SDS011;74896;42.518;23.712;2024-01-06T09:02:34;13.23;;;6.57;;
84666;SDS011;74896;42.518;23.712;2024-01-06T09:04:59;7.95;;;4.53;;
84666;SDS011;74896;42.518;23.712;2024-01-06T09:07:24;30.25;;;11.52;;
84666;SDS011;74896;42.518;23.712;2024-01-06T09:09:50;23.52;;;9.80;;
84666;SDS011;74896;42.518;23.712;2024-01-06T09:12:16;57.72;;;28.38;;
84666;SDS011;74896;42.518;23.712;2024-01-06T09:14:41;30.30;;;11.68;;
84666;SDS011;74896;42.518;23.712;2024-01-06T09:17:07;16.65;;;6.80;;
84666;SDS011;74896;42.518;23.712;2024-01-06T09:19:33;24.65;;;12.73;;
84666;SDS011;74896;42.518;23.712;2024-01-06T09:21:59;9.25;;;5.65;;
84666;SDS011;74896;42.518;23.712;2024-01-06T09:24:24;7.45;;;4.97;;
84666;SDS011;74896;42.518;23.712;2024-01-06T09:26:49;3.40;;;2.95;;
84666;SDS011;74896;42.518;23.712;2024-01-06T09:29:16;4.50;;;2.22;;
84666;SDS011;74896;42.518;23.712;2024-01-06T09:31:42;2.47;;;1.95;;
84666;SDS011;74896;42.518;23.712;2024-01-06T09:34:11;3.70;;;2.30;;
84666;SDS011;74896;42.518;23.712;2024-01-06T09:36:37;4.90;;;2.80;;
84666;SDS011;74896;42.518;23.712;2024-01-06T09:39:03;6.35;;;3.20;;
84666;SDS011;74896;42.518;23.712;2024-01-06T09:41:29;5.13;;;3.15;;
84666;SDS011;74896;42.518;23.712;2024-01-06T09:43:55;3.97;;;2.72;;
84666;SDS011;74896;42.518;23.712;2024-01-06T09:46:23;4.10;;;2.92;;
84666;SDS011;74896;42.518;23.712;2024-01-06T09:48:51;3.88;;;2.30;;
84666;SDS011;74896;42.518;23.712;2024-01-06T09:51:20;3.20;;;2.30;;
84666;SDS011;74896;42.518;23.712;2024-01-06T09:53:55;5.80;;;3.33;;
84666;SDS011;74896;42.518;23.712;2024-01-06T09:56:23;2.67;;;2.30;;
84666;SDS011;74896;42.518;23.712;2024-01-06T09:58:53;3.17;;;2.28;;
84666;SDS011;74896;42.518;23.712;2024-01-06T10:01:19;3.03;;;2.10;;
84666;SDS011;74896;42.518;23.712;2024-01-06T10:03:45;2.75;;;2.05;;
84666;SDS011;74896;42.518;23.712;2024-01-06T10:06:11;3.95;;;2.40;;
84666;SDS011;74896;42.518;23.712;2024-01-06T10:08:38;3.83;;;2.17;;
84666;SDS011;74896;42.518;23.712;2024-01-06T10:11:05;4.32;;;2.10;;
84666;SDS011;74896;42.518;23.712;2024-01-06T10:13:33;5.15;;;2.13;;
84666;SDS011;74896;42.518;23.712;2024-01-06T10:15:59;2.45;;;1.80;;
84666;SDS011;74896;42.518;23.712;2024-01-06T10:18:25;2.33;;;1.50;;
84666;SDS011;74896;42.518;23.712;2024-01-06T10:20:52;2.83;;;2.00;;
84666;SDS011;74896;42.518;23.712;2024-01-06T10:23:18;3.47;;;2.03;;
84666;SDS011;74896;42.518;23.712;2024-01-06T10:25:43;1.98;;;1.65;;
84666;SDS011;74896;42.518;23.712;2024-01-06T10:28:12;5.97;;;2.60;;
84666;SDS011;74896;42.518;23.712;2024-01-06T10:30:38;3.05;;;2.30;;
84666;SDS011;74896;42.518;23.712;2024-01-06T10:33:08;4.50;;;2.13;;
84666;SDS011;74896;42.518;23.712;2024-01-06T10:35:35;2.85;;;1.90;;
84666;SDS011;74896;42.518;23.712;2024-01-06T10:38:01;18.85;;;10.32;;
84666;SDS011;74896;42.518;23.712;2024-01-06T10:40:28;4.28;;;2.72;;
84666;SDS011;74896;42.518;23.712;2024-01-06T10:42:54;23.70;;;11.90;;
84666;SDS011;74896;42.518;23.712;2024-01-06T10:45:22;39.95;;;19.33;;
84666;SDS011;74896;42.518;23.712;2024-01-06T10:47:48;24.75;;;13.00;;
84666;SDS011;74896;42.518;23.712;2024-01-06T10:50:15;151.30;;;71.30;;
84666;SDS011;74896;42.518;23.712;2024-01-06T10:52:42;8.95;;;5.50;;
84666;SDS011;74896;42.518;23.712;2024-01-06T10:55:08;25.98;;;15.90;;
84666;SDS011;74896;42.518;23.712;2024-01-06T10:57:34;43.85;;;21.45;;
84666;SDS011;74896;42.518;23.712;2024-01-06T11:00:02;32.25;;;13.55;;
84666;SDS011;74896;42.518;23.712;2024-01-06T11:02:30;11.23;;;5.32;;
84666;SDS011;74896;42.518;23.712;2024-01-06T11:04:56;21.23;;;8.57;;
84666;SDS011;74896;42.518;23.712;2024-01-06T11:07:23;53.13;;;25.38;;
84666;SDS011;74896;42.518;23.712;2024-01-06T11:09:52;62.13;;;29.95;;
84666;SDS011;74896;42.518;23.712;2024-01-06T11:12:27;19.08;;;11.85;;
84666;SDS011;74896;42.518;23.712;2024-01-06T11:14:53;11.98;;;6.50;;
84666;SDS011;74896;42.518;23.712;2024-01-06T11:20:18;10.95;;;5.68;;
84666;SDS011;74896;42.518;23.712;2024-01-06T11:22:46;12.88;;;5.40;;
84666;SDS011;74896;42.518;23.712;2024-01-06T11:25:13;8.57;;;5.40;;
84666;SDS011;74896;42.518;23.712;2024-01-06T11:27:41;7.00;;;2.83;;
84666;SDS011;74896;42.518;23.712;2024-01-06T11:30:12;8.60;;;4.95;;
84666;SDS011;74896;42.518;23.712;2024-01-06T11:32:48;14.80;;;8.07;;
84666;SDS011;74896;42.518;23.712;2024-01-06T11:35:17;4.35;;;3.08;;
84666;SDS011;74896;42.518;23.712;2024-01-06T11:42:46;6.53;;;4.93;;
84666;SDS011;74896;42.518;23.712;2024-01-06T11:45:32;10.90;;;5.40;;
84666;SDS011;74896;42.518;23.712;2024-01-06T11:47:58;3.80;;;2.55;;
84666;SDS011;74896;42.518;23.712;2024-01-06T11:50:25;9.10;;;4.00;;
84666;SDS011;74896;42.518;23.712;2024-01-06T11:52:52;10.35;;;5.32;;
84666;SDS011;74896;42.518;23.712;2024-01-06T11:55:18;5.03;;;2.65;;
84666;SDS011;74896;42.518;23.712;2024-01-06T11:57:44;10.32;;;5.47;;
84666;SDS011;74896;42.518;23.712;2024-01-06T12:00:09;12.57;;;6.20;;
84666;SDS011;74896;42.518;23.712;2024-01-06T12:02:36;8.07;;;4.45;;
84666;SDS011;74896;42.518;23.712;2024-01-06T12:05:01;4.65;;;2.58;;
84666;SDS011;74896;42.518;23.712;2024-01-06T12:07:27;3.78;;;2.10;;
84666;SDS011;74896;42.518;23.712;2024-01-06T12:10:00;5.40;;;3.00;;
84666;SDS011;74896;42.518;23.712;2024-01-06T12:12:27;4.32;;;3.00;;
84666;SDS011;74896;42.518;23.712;2024-01-06T12:14:52;5.50;;;3.38;;
84666;SDS011;74896;42.518;23.712;2024-01-06T12:17:18;6.63;;;3.45;;
84666;SDS011;74896;42.518;23.712;2024-01-06T12:19:46;4.10;;;2.50;;
84666;SDS011;74896;42.518;23.712;2024-01-06T12:22:12;4.20;;;2.95;;
84666;SDS011;74896;42.518;23.712;2024-01-06T12:24:38;5.22;;;3.03;;
84666;SDS011;74896;42.518;23.712;2024-01-06T12:27:06;4.82;;;3.45;;
84666;SDS011;74896;42.518;23.712;2024-01-06T12:29:34;5.10;;;3.88;;
84666;SDS011;74896;42.518;23.712;2024-01-06T12:32:03;25.80;;;13.65;;
84666;SDS011;74896;42.518;23.712;2024-01-06T12:34:28;14.85;;;7.63;;
84666;SDS011;74896;42.518;23.712;2024-01-06T12:36:54;11.82;;;6.68;;
84666;SDS011;74896;42.518;23.712;2024-01-06T12:39:23;7.97;;;5.63;;
84666;SDS011;74896;42.518;23.712;2024-01-06T12:41:53;7.78;;;5.00;;
84666;SDS011;74896;42.518;23.712;2024-01-06T12:44:19;8.77;;;5.47;;
84666;SDS011;74896;42.518;23.712;2024-01-06T12:46:45;7.60;;;4.90;;
84666;SDS011;74896;42.518;23.712;2024-01-06T12:49:11;5.68;;;3.97;;
84666;SDS011;74896;42.518;23.712;2024-01-06T12:51:37;7.00;;;4.45;;
84666;SDS011;74896;42.518;23.712;2024-01-06T12:54:02;5.65;;;4.13;;
84666;SDS011;74896;42.518;23.712;2024-01-06T12:56:28;6.75;;;4.70;;
84666;SDS011;74896;42.518;23.712;2024-01-06T12:58:53;6.20;;;3.85;;
84666;SDS011;74896;42.518;23.712;2024-01-06T13:01:19;6.82;;;3.50;;
84666;SDS011;74896;42.518;23.712;2024-01-06T13:03:45;7.00;;;4.22;;
84666;SDS011;74896;42.518;23.712;2024-01-06T13:06:11;5.35;;;3.97;;
84666;SDS011;74896;42.518;23.712;2024-01-06T13:08:37;8.60;;;5.78;;
84666;SDS011;74896;42.518;23.712;2024-01-06T13:11:03;9.10;;;5.47;;
84666;SDS011;74896;42.518;23.712;2024-01-06T13:13:29;8.45;;;5.55;;
84666;SDS011;74896;42.518;23.712;2024-01-06T13:15:56;9.50;;;5.82;;
84666;SDS011;74896;42.518;23.712;2024-01-06T13:18:21;9.77;;;6.07;;
84666;SDS011;74896;42.518;23.712;2024-01-06T13:20:47;10.40;;;6.10;;
84666;SDS011;74896;42.518;23.712;2024-01-06T13:23:12;19.40;;;13.57;;
84666;SDS011;74896;42.518;23.712;2024-01-06T13:25:37;13.90;;;10.25;;
84666;SDS011;74896;42.518;23.712;2024-01-06T13:28:05;12.30;;;8.60;;
84666;SDS011;74896;42.518;23.712;2024-01-06T13:30:31;11.10;;;6.82;;
84666;SDS011;74896;42.518;23.712;2024-01-06T13:32:57;10.80;;;7.45;;
84666;SDS011;74896;42.518;23.712;2024-01-06T13:35:23;14.60;;;8.75;;
84666;SDS011;74896;42.518;23.712;2024-01-06T13:37:53;12.55;;;8.13;;
84666;SDS011;74896;42.518;23.712;2024-01-06T13:40:21;9.38;;;7.15;;
84666;SDS011;74896;42.518;23.712;2024-01-06T13:42:48;14.70;;;8.38;;
84666;SDS011;74896;42.518;23.712;2024-01-06T13:45:15;13.85;;;8.13;;
84666;SDS011;74896;42.518;23.712;2024-01-06T13:47:41;15.05;;;8.68;;
84666;SDS011;74896;42.518;23.712;2024-01-06T13:50:09;14.75;;;9.10;;
84666;SDS011;74896;42.518;23.712;2024-01-06T13:52:40;15.70;;;9.38;;
84666;SDS011;74896;42.518;23.712;2024-01-06T13:55:06;12.90;;;9.02;;
84666;SDS011;74896;42.518;23.712;2024-01-06T13:57:32;14.77;;;10.25;;
84666;SDS011;74896;42.518;23.712;2024-01-06T13:59:57;17.83;;;10.35;;
84666;SDS011;74896;42.518;23.712;2024-01-06T14:02:23;17.17;;;11.27;;
84666;SDS011;74896;42.518;23.712;2024-01-06T14:04:49;17.38;;;10.65;;
84666;SDS011;74896;42.518;23.712;2024-01-06T14:07:15;15.30;;;9.85;;
84666;SDS011;74896;42.518;23.712;2024-01-06T14:09:44;16.30;;;9.65;;
84666;SDS011;74896;42.518;23.712;2024-01-06T14:12:09;16.00;;;9.30;;
84666;SDS011;74896;42.518;23.712;2024-01-06T14:14:34;13.18;;;9.57;;
84666;SDS011;74896;42.518;23.712;2024-01-06T14:17:00;15.05;;;9.57;;
84666;SDS011;74896;42.518;23.712;2024-01-06T14:19:25;20.75;;;12.38;;
84666;SDS011;74896;42.518;23.712;2024-01-06T14:21:51;36.45;;;16.70;;
84666;SDS011;74896;42.518;23.712;2024-01-06T14:24:16;29.40;;;12.77;;